WetterOnline ( https://www.wetteronline.ch )

Wetter aktuell Waibstadt

Aktuelles Wetter: Waibstadt (237m)

6-stündlich | Neueste Meldungen
Ortszeit Temperatur Wetter
Di, 12.11. 13:00 7.7° C bewölkt
Di, 12.11. 7:00 3.7° C leicht bewölkt
Di, 12.11. 1:00 3.9° C Regen
Mo, 11.11. 19:00 1.5° C bedeckt
Mo, 11.11. 13:00 1.1° C bewölkt
Mo, 11.11. 7:00 0.5° C bedeckt
Mo, 11.11. 1:00 2.3° C bedeckt
So, 10.11. 19:00 1.7° C Nebel
Ortszeit Temperatur Wetter
Di, 12.11. 16:00 6.9° C leichter Regen
Di, 12.11. 15:50 6.9° C leichter Regen
Di, 12.11. 15:40 7.2° C bedeckt
Di, 12.11. 15:30 7.6° C bedeckt
Di, 12.11. 15:20 7.6° C bedeckt
Di, 12.11. 15:10 7.7° C bedeckt
Di, 12.11. 15:00 7.8° C bedeckt
Di, 12.11. 14:30 7.9° C bedeckt
Di, 12.11. 14:00 7.8° C bewölkt
Di, 12.11. 13:30 8.1° C bedeckt
Di, 12.11. 13:00 7.7° C bewölkt
Ortszeit Relative Feuchte Sichtweite
Di, 12.11. 13:00 65% 55 km
Di, 12.11. 7:00 89% 45 km
Di, 12.11. 1:00 95% 17 km
Mo, 11.11. 19:00 92% 10 km
Mo, 11.11. 13:00 85% 19 km
Mo, 11.11. 7:00 94% 7 km
Mo, 11.11. 1:00 94% 8 km
So, 10.11. 19:00 99% 0.2 km
Ortszeit Relative Feuchte Sichtweite
Di, 12.11. 16:00 66% 45 km
Di, 12.11. 15:50 66% -
Di, 12.11. 15:40 64% -
Di, 12.11. 15:30 60% 55 km
Di, 12.11. 15:20 60% -
Di, 12.11. 15:10 59% -
Di, 12.11. 15:00 59% 60 km
Di, 12.11. 14:30 58% 50 km
Di, 12.11. 14:00 59% 55 km
Di, 12.11. 13:30 58% 60 km
Di, 12.11. 13:00 65% 55 km
Ortszeit Niederschlagsmenge Niederschlagsart
Di, 12.11. 13:00 0.0 l/m2 in 6 Std. -
Di, 12.11. 7:00 0.2 l/m2 in 12 Std. -
Di, 12.11. 1:00 0.2 l/m2 in 6 Std. Regen
Mo, 11.11. 19:00 0.1 l/m2 in 12 Std. Regen
Mo, 11.11. 13:00 0.0 l/m2 in 6 Std. -
Mo, 11.11. 7:00 0.0 l/m2 in 12 Std. -
Mo, 11.11. 1:00 0.0 l/m2 in 6 Std. -
So, 10.11. 19:00 0.0 l/m2 in 12 Std. -
Ortszeit Niederschlagsmenge Niederschlagsart
Di, 12.11. 16:00 0.1 l/m2 in 1 Std. Regen
Di, 12.11. 15:50 keine Meldung -
Di, 12.11. 15:40 keine Meldung -
Di, 12.11. 15:30 0.1 l/m2 in 1 Std. Schneeregen
Di, 12.11. 15:20 keine Meldung -
Di, 12.11. 15:10 keine Meldung -
Di, 12.11. 15:00 0.0 l/m2 in 1 Std. -
Di, 12.11. 14:30 0.0 l/m2 in 1 Std. -
Di, 12.11. 14:00 0.0 l/m2 in 1 Std. -
Di, 12.11. 13:30 0.0 l/m2 in 1 Std. -
Di, 12.11. 13:00 0.0 l/m2 in 1 Std. -
Ortszeit Stärke Spitze Richtung
km/h Bft. km/h Grad Sektor
Di, 12.11. 13:00 18 3 32 200° S
Di, 12.11. 7:00 11 2 32 190° S
Di, 12.11. 1:00 15 3 20 230° SW
Mo, 11.11. 19:00 9 2 19 110° O
Mo, 11.11. 13:00 13 3 24 140° SO
Mo, 11.11. 7:00 7 2 22 130° SO
Mo, 11.11. 1:00 9 2 17 160° S
So, 10.11. 19:00 0 0 14 - -
Ortszeit Stärke Spitze Richtung
km/h Bft. km/h Grad Sektor
Di, 12.11. 16:00 14 3 25 250° W
Di, 12.11. 15:50 14 3 - 250° W
Di, 12.11. 15:40 11 2 - 250° W
Di, 12.11. 15:30 14 3 22 210° SW
Di, 12.11. 15:20 14 3 - 210° SW
Di, 12.11. 15:10 14 3 - 210° SW
Di, 12.11. 15:00 15 3 31 190° S
Di, 12.11. 14:30 17 3 31 230° SW
Di, 12.11. 14:00 14 3 36 220° SW
Di, 12.11. 13:30 18 3 36 220° SW
Di, 12.11. 13:00 18 3 32 200° S
Ortszeit Untergrenze Bedeckung Gattung
total tief tief mittel hoch
Di, 12.11. 13:00 1140 m 7/8 7/8 - - -
Di, 12.11. 7:00 900 m 3/8 3/8 - - -
Di, 12.11. 1:00 270 m 7/8 7/8 - - -
Mo, 11.11. 19:00 3600 m 8/8 8/8 - - -
Mo, 11.11. 13:00 240 m 7/8 7/8 - - -
Mo, 11.11. 7:00 120 m 8/8 8/8 - - -
Mo, 11.11. 1:00 120 m 8/8 8/8 - - -
So, 10.11. 19:00 <30 m 8/8 0/8 - - -
Ortszeit Bedeckungsgrad in Achtel und Wolkenuntergrenze
Di, 12.11. 16:00 6(1290m) 7(1500m) 8(2100m)
Di, 12.11. 15:50 6(1290m) 7(1500m) 8(2100m)
Di, 12.11. 15:40 6(1350m) 7(1800m) 8(2100m)
Di, 12.11. 15:30 3(1470m) 7(1500m) 8(2100m)
Di, 12.11. 15:20 3(1470m) 7(1500m) 8(2100m)
Di, 12.11. 15:10 8(1500m)
Di, 12.11. 15:00 8(1500m)
Di, 12.11. 14:30 5(1230m) 8(1500m)
Di, 12.11. 14:00 2(1290m) 7(1500m) 7(2100m)
Di, 12.11. 13:30 6(1170m) 7(1470m) 8(2100m)
Di, 12.11. 13:00 7(1140m) 7(1800m)
Ortszeit Luftdruck NN (hPa) Tendenz (hPa in 3 Std.)
Di, 12.11. 13:00 1006 - 1,9
Di, 12.11. 7:00 1009 0,0
Di, 12.11. 1:00 1008 + 0,5
Mo, 11.11. 19:00 1009 - 0,8
Mo, 11.11. 13:00 1011 - 2,6
Mo, 11.11. 7:00 1016 - 1,0
Mo, 11.11. 1:00 1018 + 0,3
So, 10.11. 19:00 1017 + 2,6
Ortszeit Luftdruck NN (hPa) Tendenz (hPa in 3 Std.)
Di, 12.11. 16:00 1006 - 0,5
Di, 12.11. 15:50 1006 keine Meldung
Di, 12.11. 15:40 1006 keine Meldung
Di, 12.11. 15:30 1005 - 1,1
Di, 12.11. 15:20 1005 keine Meldung
Di, 12.11. 15:10 1005 keine Meldung
Di, 12.11. 15:00 1006 - 1,4
Di, 12.11. 14:30 1006 - 1,8
Di, 12.11. 14:00 1006 - 1,6
Di, 12.11. 13:30 1006 - 1,9
Di, 12.11. 13:00 1006 - 1,9
Ortszeit Schneehöhe (cm)
Di, 12.11. 13:00 0
Di, 12.11. 7:00 0
Di, 12.11. 1:00 0
Mo, 11.11. 19:00 0
Mo, 11.11. 13:00 0
Mo, 11.11. 7:00 0
Mo, 11.11. 1:00 0
So, 10.11. 19:00 0
Ortszeit Schneehöhe (cm)
Di, 12.11. 16:00 0
Di, 12.11. 15:50 0
Di, 12.11. 15:40 0
Di, 12.11. 15:30 0
Di, 12.11. 15:20 0
Di, 12.11. 15:10 0
Di, 12.11. 15:00 0
Di, 12.11. 14:30 0
Di, 12.11. 14:00 0
Di, 12.11. 13:30 0
Di, 12.11. 13:00 0
Link zu dieser Seite / Seite empfehlen

Das Wetter in ...